Asteria — WDE5489 — position and weather

sailwx.info

Track history (hours):
 
Tides and Currents Weather Stations Pressure Air Temp Water Temp Dewpoint Dewpoint Depression Visibility Wind Speed Wind Dir Waves Ship Positions

Asteria

Owner: Boston HarborCruises, Boston, MA. More information available from US FCC via Universal Licensing System and Coast Guard Vessel Documentation Center.

Last reported at 2017-Mar-24 13:33 UTC. Time now 2017-Mar-24 14:00 UTC.
Position N 42°20' W 070°60'.

Length 33 m; draft 2 m.

Type: High speed craft. MMSI: 367367470.

Date/timePositionNaut miles runAvg speedWind from/ knotsBaromVisibWave heightAir tempDewpointWater temp
2017-Mar-24 13:33N 42°20' W 070°60'3 2.6
2017-Mar-24 12:33N 42°21' W 071°03'8 8.2
2017-Mar-24 11:33N 42°15' W 070°55'8 8.4
2017-Mar-24 10:34N 42°21' W 071°03'0 0.0
2017-Mar-24 00:33N 42°21' W 071°03'8 8.2
2017-Mar-23 23:33N 42°15' W 070°55'8 7.8
2017-Mar-23 22:34N 42°21' W 071°02'3 2.9
2017-Mar-23 21:34N 42°19' W 070°59'2 1.9
2017-Mar-23 20:34N 42°21' W 071°01'0 0.5
2017-Mar-23 19:34N 42°21' W 071°01'7 7.1
2017-Mar-23 18:33N 42°15' W 070°55'0 0.0
2017-Mar-23 16:27N 42°15' W 070°55'8 9.3
2017-Mar-23 15:33N 42°22' W 071°03'2 2.1
2017-Mar-23 14:34N 42°21' W 071°00'1 1.1
2017-Mar-23 13:33N 42°19' W 070°60'3 2.9
2017-Mar-23 12:34N 42°21' W 071°03'8 8.2
2017-Mar-23 11:33N 42°15' W 070°55'8 8.4
2017-Mar-23 10:33N 42°21' W 071°03'8 8.4
2017-Mar-23 09:33N 42°15' W 070°55'0 0.0
2017-Mar-23 01:12N 42°15' W 070°55'812.8
2017-Mar-23 00:33N 42°21' W 071°03'8 8.3
2017-Mar-22 23:33N 42°15' W 070°55'8 7.8
2017-Mar-22 22:33N 42°21' W 071°02'2 2.2
2017-Mar-22 21:34N 42°20' W 070°60'3 3.0
2017-Mar-22 20:33N 42°22' W 071°03'0 0.4
2017-Mar-22 19:33N 42°22' W 071°02'8 8.2
2017-Mar-22 18:33N 42°15' W 070°55'8 8.2
2017-Mar-22 17:33N 42°21' W 071°03'0 0.4
2017-Mar-22 16:33N 42°22' W 071°03'0 0.0
2017-Mar-22 15:33N 42°22' W 071°03'1 0.6
2017-Mar-22 14:33N 42°22' W 071°02'3 3.4
2017-Mar-22 13:33N 42°19' W 070°59'3 3.4
2017-Mar-22 12:33N 42°21' W 071°03'8 8.3
2017-Mar-22 11:33N 42°15' W 070°55'8 8.4
2017-Mar-22 10:34N 42°21' W 071°03'0 0.0
2017-Mar-22 00:34N 42°21' W 071°02'8 8.1
2017-Mar-21 23:33N 42°15' W 070°55'8 7.9
2017-Mar-21 22:34N 42°21' W 071°02'3 2.6
2017-Mar-21 21:34N 42°19' W 070°60'3 3.2
2017-Mar-21 20:33N 42°22' W 071°03'0 0.0
2017-Mar-21 19:34N 42°22' W 071°03'0 0.3
2017-Mar-21 18:33N 42°21' W 071°03'0 0.0
2017-Mar-21 17:33N 42°21' W 071°03'0 0.0
2017-Mar-21 16:33N 42°21' W 071°03'0 0.0
2017-Mar-21 15:33N 42°21' W 071°03'8 8.4
2017-Mar-21 14:33N 42°15' W 070°55'5 4.7
2017-Mar-21 13:33N 42°19' W 070°59'3 3.5
2017-Mar-21 12:33N 42°21' W 071°03'8 8.1
2017-Mar-21 11:33N 42°15' W 070°55'8 8.4
2017-Mar-21 10:33N 42°21' W 071°03'8 8.4
2017-Mar-21 09:34N 42°15' W 070°55'8 0.9
2017-Mar-21 00:34N 42°21' W 071°03'8 7.9
2017-Mar-20 23:32N 42°15' W 070°55'8 7.9
2017-Mar-20 22:33N 42°21' W 071°02'2 2.5
2017-Mar-20 21:34N 42°19' W 070°60'2 2.0
2017-Mar-20 20:33N 42°21' W 071°01'0 0.4
2017-Mar-20 19:34N 42°21' W 071°02'1 0.2
2017-Mar-20 16:33N 42°22' W 071°03'0 0.2
2017-Mar-20 15:33N 42°22' W 071°03'0 0.3
2017-Mar-20 14:33N 42°21' W 071°03'3 3.3
2017-Mar-20 13:33N 42°19' W 070°60'3 3.2
2017-Mar-20 12:33N 42°21' W 071°03'8 6.7
2017-Mar-20 11:20N 42°15' W 070°55'810.7
2017-Mar-20 10:33N 42°21' W 071°03'  
2017-Mar-18 00:33N 42°21' W 071°02'8 8.1
2017-Mar-17 23:33N 42°15' W 070°55'8 8.0
2017-Mar-17 22:33N 42°21' W 071°02'3 3.3
2017-Mar-17 21:33N 42°19' W 070°59'3 3.2
2017-Mar-17 20:34N 42°21' W 071°02'1 0.6
2017-Mar-17 19:34N 42°21' W 071°01'7 3.3
2017-Mar-17 17:29N 42°15' W 070°58'0 0.0
2017-Mar-17 16:18N 42°15' W 070°58'0 0.0
2017-Mar-17 15:32N 42°15' W 070°58'8 7.8
2017-Mar-17 14:33N 42°22' W 071°02'2 2.4
2017-Mar-17 13:34N 42°20' W 070°60'2 2.3
2017-Mar-17 12:33N 42°21' W 071°02'8 8.1
2017-Mar-17 11:33N 42°15' W 070°55'8 8.4
2017-Mar-17 10:33N 42°21' W 071°03'0 0.0
2017-Mar-17 00:33N 42°21' W 071°03'8 8.2
2017-Mar-16 23:34N 42°15' W 070°55'8 7.9
2017-Mar-16 22:34N 42°21' W 071°02'3 2.6
2017-Mar-16 21:34N 42°19' W 070°60'2 2.4
2017-Mar-16 20:34N 42°21' W 071°02'0 0.4
2017-Mar-16 19:34N 42°21' W 071°02'7 5.9
2017-Mar-16 18:25N 42°15' W 070°58'2 0.7
2017-Mar-16 15:33N 42°16' W 070°56'8 7.5
2017-Mar-16 14:33N 42°22' W 071°03'3 3.1
2017-Mar-16 13:34N 42°20' W 070°60'3 2.9
2017-Mar-16 12:33N 42°21' W 071°03'8 8.3
2017-Mar-16 11:34N 42°15' W 070°55'8 8.3
2017-Mar-16 10:33N 42°21' W 071°03'8 8.4
2017-Mar-16 09:33N 42°15' W 070°55'0 0.0
2017-Mar-16 01:04N 42°15' W 070°55'816.3
2017-Mar-16 00:34N 42°21' W 071°03'8 8.3
2017-Mar-15 23:33N 42°15' W 070°55'8 7.8
2017-Mar-15 22:34N 42°21' W 071°02'2 2.3
2017-Mar-15 21:34N 42°20' W 070°60'3 3.0
2017-Mar-15 20:33N 42°22' W 071°03'0 0.0
2017-Mar-15 19:34N 42°22' W 071°03'0 0.0
2017-Mar-15 18:34N 42°22' W 071°03'0 0.0
2017-Mar-15 17:34N 42°22' W 071°03'0 0.0
2017-Mar-15 16:34N 42°22' W 071°03'0 0.0
2017-Mar-15 15:34N 42°22' W 071°03'0 0.2
2017-Mar-15 14:33N 42°22' W 071°03'4 3.8
2017-Mar-15 13:34N 42°19' W 070°59'4 3.7
2017-Mar-15 12:34N 42°21' W 071°03'8 8.3
2017-Mar-15 11:34N 42°15' W 070°55'8 8.3
2017-Mar-15 10:33N 42°21' W 071°03'  
Track history (hours):
 
Tides and Currents Weather Stations Pressure Air Temp Water Temp Dewpoint Dewpoint Depression Visibility Wind Speed Wind Dir Waves Ship Positions

Asteria

Owner: Boston HarborCruises, Boston, MA. More information available from US FCC via Universal Licensing System and Coast Guard Vessel Documentation Center.

Last reported at 2017-Mar-24 13:33 UTC. Time now 2017-Mar-24 14:00 UTC.
Position N 42°20' W 070°60'.

Length 33 m; draft 2 m.

Type: High speed craft. MMSI: 367367470.

Date/timePositionNaut miles runAvg speedWind from/ knotsBaromVisibWave heightAir tempDewpointWater temp
2017-Mar-24 13:33N 42°20' W 070°60'3 2.6
2017-Mar-24 12:33N 42°21' W 071°03'8 8.2
2017-Mar-24 11:33N 42°15' W 070°55'8 8.4
2017-Mar-24 10:34N 42°21' W 071°03'0 0.0
2017-Mar-24 00:33N 42°21' W 071°03'8 8.2
2017-Mar-23 23:33N 42°15' W 070°55'8 7.8
2017-Mar-23 22:34N 42°21' W 071°02'3 2.9
2017-Mar-23 21:34N 42°19' W 070°59'2 1.9
2017-Mar-23 20:34N 42°21' W 071°01'0 0.5
2017-Mar-23 19:34N 42°21' W 071°01'7 7.1
2017-Mar-23 18:33N 42°15' W 070°55'0 0.0
2017-Mar-23 16:27N 42°15' W 070°55'8 9.3
2017-Mar-23 15:33N 42°22' W 071°03'2 2.1
2017-Mar-23 14:34N 42°21' W 071°00'1 1.1
2017-Mar-23 13:33N 42°19' W 070°60'3 2.9
2017-Mar-23 12:34N 42°21' W 071°03'8 8.2
2017-Mar-23 11:33N 42°15' W 070°55'8 8.4
2017-Mar-23 10:33N 42°21' W 071°03'8 8.4
2017-Mar-23 09:33N 42°15' W 070°55'0 0.0
2017-Mar-23 01:12N 42°15' W 070°55'812.8
2017-Mar-23 00:33N 42°21' W 071°03'8 8.3
2017-Mar-22 23:33N 42°15' W 070°55'8 7.8
2017-Mar-22 22:33N 42°21' W 071°02'2 2.2
2017-Mar-22 21:34N 42°20' W 070°60'3 3.0
2017-Mar-22 20:33N 42°22' W 071°03'0 0.4
2017-Mar-22 19:33N 42°22' W 071°02'8 8.2
2017-Mar-22 18:33N 42°15' W 070°55'8 8.2
2017-Mar-22 17:33N 42°21' W 071°03'0 0.4
2017-Mar-22 16:33N 42°22' W 071°03'0 0.0
2017-Mar-22 15:33N 42°22' W 071°03'1 0.6
2017-Mar-22 14:33N 42°22' W 071°02'3 3.4
2017-Mar-22 13:33N 42°19' W 070°59'3 3.4
2017-Mar-22 12:33N 42°21' W 071°03'8 8.3
2017-Mar-22 11:33N 42°15' W 070°55'8 8.4
2017-Mar-22 10:34N 42°21' W 071°03'0 0.0
2017-Mar-22 00:34N 42°21' W 071°02'8 8.1
2017-Mar-21 23:33N 42°15' W 070°55'8 7.9
2017-Mar-21 22:34N 42°21' W 071°02'3 2.6
2017-Mar-21 21:34N 42°19' W 070°60'3 3.2
2017-Mar-21 20:33N 42°22' W 071°03'0 0.0
2017-Mar-21 19:34N 42°22' W 071°03'0 0.3
2017-Mar-21 18:33N 42°21' W 071°03'0 0.0
2017-Mar-21 17:33N 42°21' W 071°03'0 0.0
2017-Mar-21 16:33N 42°21' W 071°03'0 0.0
2017-Mar-21 15:33N 42°21' W 071°03'8 8.4
2017-Mar-21 14:33N 42°15' W 070°55'5 4.7
2017-Mar-21 13:33N 42°19' W 070°59'3 3.5
2017-Mar-21 12:33N 42°21' W 071°03'8 8.1
2017-Mar-21 11:33N 42°15' W 070°55'8 8.4
2017-Mar-21 10:33N 42°21' W 071°03'8 8.4
2017-Mar-21 09:34N 42°15' W 070°55'8 0.9
2017-Mar-21 00:34N 42°21' W 071°03'8 7.9
2017-Mar-20 23:32N 42°15' W 070°55'8 7.9
2017-Mar-20 22:33N 42°21' W 071°02'2 2.5
2017-Mar-20 21:34N 42°19' W 070°60'2 2.0
2017-Mar-20 20:33N 42°21' W 071°01'0 0.4
2017-Mar-20 19:34N 42°21' W 071°02'1 0.2
2017-Mar-20 16:33N 42°22' W 071°03'0 0.2
2017-Mar-20 15:33N 42°22' W 071°03'0 0.3
2017-Mar-20 14:33N 42°21' W 071°03'3 3.3
2017-Mar-20 13:33N 42°19' W 070°60'3 3.2
2017-Mar-20 12:33N 42°21' W 071°03'8 6.7
2017-Mar-20 11:20N 42°15' W 070°55'810.7
2017-Mar-20 10:33N 42°21' W 071°03'  
2017-Mar-18 00:33N 42°21' W 071°02'8 8.1
2017-Mar-17 23:33N 42°15' W 070°55'8 8.0
2017-Mar-17 22:33N 42°21' W 071°02'3 3.3
2017-Mar-17 21:33N 42°19' W 070°59'3 3.2
2017-Mar-17 20:34N 42°21' W 071°02'1 0.6
2017-Mar-17 19:34N 42°21' W 071°01'7 3.3
2017-Mar-17 17:29N 42°15' W 070°58'0 0.0
2017-Mar-17 16:18N 42°15' W 070°58'0 0.0
2017-Mar-17 15:32N 42°15' W 070°58'8 7.8
2017-Mar-17 14:33N 42°22' W 071°02'2 2.4
2017-Mar-17 13:34N 42°20' W 070°60'2 2.3
2017-Mar-17 12:33N 42°21' W 071°02'8 8.1
2017-Mar-17 11:33N 42°15' W 070°55'8 8.4
2017-Mar-17 10:33N 42°21' W 071°03'0 0.0
2017-Mar-17 00:33N 42°21' W 071°03'8 8.2
2017-Mar-16 23:34N 42°15' W 070°55'8 7.9
2017-Mar-16 22:34N 42°21' W 071°02'3 2.6
2017-Mar-16 21:34N 42°19' W 070°60'2 2.4
2017-Mar-16 20:34N 42°21' W 071°02'0 0.4
2017-Mar-16 19:34N 42°21' W 071°02'7 5.9
2017-Mar-16 18:25N 42°15' W 070°58'2 0.7
2017-Mar-16 15:33N 42°16' W 070°56'8 7.5
2017-Mar-16 14:33N 42°22' W 071°03'3 3.1
2017-Mar-16 13:34N 42°20' W 070°60'3 2.9
2017-Mar-16 12:33N 42°21' W 071°03'8 8.3
2017-Mar-16 11:34N 42°15' W 070°55'8 8.3
2017-Mar-16 10:33N 42°21' W 071°03'8 8.4
2017-Mar-16 09:33N 42°15' W 070°55'0 0.0
2017-Mar-16 01:04N 42°15' W 070°55'816.3
2017-Mar-16 00:34N 42°21' W 071°03'8 8.3
2017-Mar-15 23:33N 42°15' W 070°55'8 7.8
2017-Mar-15 22:34N 42°21' W 071°02'2 2.3
2017-Mar-15 21:34N 42°20' W 070°60'3 3.0
2017-Mar-15 20:33N 42°22' W 071°03'0 0.0
2017-Mar-15 19:34N 42°22' W 071°03'0 0.0
2017-Mar-15 18:34N 42°22' W 071°03'0 0.0
2017-Mar-15 17:34N 42°22' W 071°03'0 0.0
2017-Mar-15 16:34N 42°22' W 071°03'0 0.0
2017-Mar-15 15:34N 42°22' W 071°03'0 0.2
2017-Mar-15 14:33N 42°22' W 071°03'4 3.8
2017-Mar-15 13:34N 42°19' W 070°59'4 3.7
2017-Mar-15 12:34N 42°21' W 071°03'8 8.3
2017-Mar-15 11:34N 42°15' W 070°55'8 8.3
2017-Mar-15 10:33N 42°21' W 071°03'  

Dump ship's entire track history